Time;durP1;ratioP1;P1;durP2;ratioP2;P2;SDS_P1;SDS_P2;PMS_P1;PMS_P2;Temp;Humidity;BMP_temperature;BMP_pressure;BME280_temperature;BME280_humidity;BME280_pressure;Samples;Min_cycle;Max_cycle;Signal;HPM_P1;HPM_P2
2021/12/31 00:01:25;;;;;;;7.00;3.58;;;;;;;-4.42;98.88;98933.50;5015223;28;20563;-70
2021/12/31 00:03:52;;;;;;;6.28;3.95;;;;;;;-4.27;98.35;98934.00;5015213;28;20049;-70
2021/12/31 00:06:19;;;;;;;6.57;3.63;;;;;;;-4.28;97.38;98933.16;5015642;28;20046;-70
2021/12/31 00:08:46;;;;;;;4.82;2.70;;;;;;;-4.31;98.69;98932.41;5015519;28;20042;-69
2021/12/31 00:11:14;;;;;;;5.70;3.63;;;;;;;-4.31;98.03;98924.78;5015405;28;20072;-69
2021/12/31 00:13:41;;;;;;;3.10;2.13;;;;;;;-4.21;97.39;98916.91;5014943;28;20489;-70
2021/12/31 00:16:08;;;;;;;5.28;3.20;;;;;;;-4.26;97.69;98912.81;5014718;28;20484;-69
2021/12/31 00:18:34;;;;;;;7.18;4.00;;;;;;;-4.30;97.50;98911.22;5014882;28;20377;-69
2021/12/31 00:21:03;;;;;;;8.52;5.03;;;;;;;-4.44;98.42;98909.00;5014466;28;20054;-69
2021/12/31 00:23:30;;;;;;;5.82;3.67;;;;;;;-4.40;99.27;98908.88;5015154;28;20077;-69
2021/12/31 00:25:57;;;;;;;7.50;4.05;;;;;;;-4.52;99.90;98904.13;5014697;28;20042;-68
2021/12/31 00:28:25;;;;;;;5.32;3.42;;;;;;;-4.31;99.08;98900.22;5014844;28;20373;-69
2021/12/31 00:30:54;;;;;;;6.75;3.83;;;;;;;-4.45;98.98;98897.16;5014876;28;20061;-70
2021/12/31 00:33:22;;;;;;;6.97;3.58;;;;;;;-4.28;98.42;98900.16;5015017;28;20136;-70
2021/12/31 00:35:49;;;;;;;7.65;3.90;;;;;;;-4.18;97.53;98910.91;5014495;28;20054;-66
2021/12/31 00:38:16;;;;;;;6.57;4.05;;;;;;;-4.21;97.66;98904.22;5014673;28;20046;-65
2021/12/31 00:40:43;;;;;;;6.43;3.58;;;;;;;-4.11;97.29;98903.97;5014488;28;20049;-69
2021/12/31 00:43:11;;;;;;;6.28;3.50;;;;;;;-4.19;97.47;98899.94;5014640;28;20042;-69
2021/12/31 00:45:41;;;;;;;7.53;4.68;;;;;;;-4.32;98.24;98888.38;5014324;28;20103;-70
2021/12/31 00:48:09;;;;;;;7.10;3.88;;;;;;;-4.38;99.05;98891.91;5014284;28;20052;-70
2021/12/31 00:50:36;;;;;;;6.05;3.47;;;;;;;-4.34;97.35;98886.75;5014383;28;20046;-70
2021/12/31 00:53:04;;;;;;;6.40;4.15;;;;;;;-4.34;97.87;98885.06;5014139;28;20412;-69
2021/12/31 00:55:31;;;;;;;7.13;4.32;;;;;;;-4.44;98.35;98881.09;5014139;28;20385;-68
2021/12/31 00:57:57;;;;;;;6.68;3.75;;;;;;;-4.23;97.82;98883.09;5015356;28;20071;-69
2021/12/31 01:00:24;;;;;;;3.42;2.65;;;;;;;-4.17;96.89;98885.47;5015787;28;20050;-70
2021/12/31 01:02:53;;;;;;;7.30;4.28;;;;;;;-4.43;98.72;98877.66;5015502;28;20058;-69
2021/12/31 01:05:19;;;;;;;8.10;3.65;;;;;;;-4.55;100.00;98883.84;5015523;28;20053;-69
2021/12/31 01:07:47;;;;;;;5.97;4.25;;;;;;;-4.35;98.27;98885.09;5015832;28;20046;-69
2021/12/31 01:10:16;;;;;;;7.60;4.15;;;;;;;-4.26;97.90;98888.25;5015517;28;20065;-66
2021/12/31 01:12:44;;;;;;;6.15;3.88;;;;;;;-4.25;98.26;98882.28;5015501;28;20053;-66
2021/12/31 01:15:18;;;;;;;5.68;3.78;;;;;;;-4.24;98.28;98883.97;5014996;28;20377;-68
2021/12/31 01:18:17;;;;;;;6.47;3.78;;;;;;;-4.11;97.55;98881.09;5015326;28;20042;-70
2021/12/31 01:20:46;;;;;;;6.68;3.70;;;;;;;-4.14;97.39;98876.09;5014237;28;20072;-69
2021/12/31 01:23:15;;;;;;;5.90;3.75;;;;;;;-4.17;97.70;98874.47;5013743;28;20512;-68
2021/12/31 01:25:42;;;;;;;7.40;4.20;;;;;;;-4.20;97.20;98883.00;5013764;28;20064;-71
2021/12/31 01:28:09;;;;;;;6.53;4.22;;;;;;;-4.23;97.88;98884.81;5013686;28;20077;-69
2021/12/31 01:30:36;;;;;;;6.68;3.92;;;;;;;-4.34;98.68;98879.13;5013741;28;20053;-67
2021/12/31 01:33:03;;;;;;;6.43;4.07;;;;;;;-4.28;98.70;98886.63;5013381;28;20054;-71
2021/12/31 01:35:30;;;;;;;7.25;4.18;;;;;;;-4.27;98.26;98886.56;5013141;28;20053;-70
2021/12/31 01:37:58;;;;;;;6.82;3.83;;;;;;;-4.46;99.27;98880.28;5013503;28;20046;-71
2021/12/31 01:40:25;;;;;;;7.85;4.32;;;;;;;-4.56;100.00;98873.75;5013474;28;20049;-67
2021/12/31 01:42:52;;;;;;;8.60;4.55;;;;;;;-4.53;100.00;98878.75;5013326;28;20049;-68
2021/12/31 01:45:21;;;;;;;8.15;5.05;;;;;;;-4.48;99.80;98871.88;5013232;28;20531;-70
2021/12/31 01:47:59;;;;;;;8.43;4.47;;;;;;;-4.41;99.02;98874.22;5013201;28;20049;-68
2021/12/31 01:50:29;;;;;;;8.60;4.30;;;;;;;-4.56;100.00;98873.75;5013070;28;20088;-68
2021/12/31 01:52:58;;;;;;;7.35;4.63;;;;;;;-4.62;100.00;98873.03;5012318;28;20057;-70
2021/12/31 01:55:28;;;;;;;7.97;4.82;;;;;;;-4.65;100.00;98875.66;5013210;28;20141;-70
2021/12/31 01:57:55;;;;;;;9.10;4.70;;;;;;;-4.64;100.00;98873.94;5013302;28;20049;-70
2021/12/31 02:00:22;;;;;;;7.15;4.40;;;;;;;-4.57;100.00;98867.00;5013158;28;20100;-70
2021/12/31 02:02:50;;;;;;;7.65;4.40;;;;;;;-4.55;100.00;98867.78;5013171;28;20424;-69
2021/12/31 02:05:16;;;;;;;;;;;;;;;-4.69;100.00;98865.59;5013554;28;20481;-67
2021/12/31 02:07:44;;;;;;;7.25;4.28;;;;;;;-4.76;100.00;98862.34;5013125;28;20331;-70
2021/12/31 02:10:12;;;;;;;;;;;;;;;-4.67;100.00;98867.22;5013449;28;20089;-70
2021/12/31 02:12:42;;;;;;;6.78;3.92;;;;;;;-4.66;100.00;98863.81;5013255;28;19930;-69
2021/12/31 02:15:10;;;;;;;6.78;4.20;;;;;;;-4.50;100.00;98865.97;5012920;28;20041;-70
2021/12/31 02:17:36;;;;;;;7.05;3.90;;;;;;;-4.47;100.00;98866.75;5012788;28;20111;-69
2021/12/31 02:20:07;;;;;;;7.97;4.00;;;;;;;-4.62;100.00;98867.13;5013150;28;20057;-70
2021/12/31 02:22:37;;;;;;;8.07;4.78;;;;;;;-4.63;100.00;98855.28;5013163;28;20050;-69
2021/12/31 02:25:05;;;;;;;7.10;3.97;;;;;;;-4.60;100.00;98860.28;5013062;28;20058;-69
2021/12/31 02:27:37;;;;;;;8.18;4.75;;;;;;;-4.51;100.00;98856.72;5012643;28;20504;-69
2021/12/31 02:30:05;;;;;;;7.85;4.20;;;;;;;-4.63;100.00;98855.28;5012650;28;20050;-69
2021/12/31 02:32:32;;;;;;;8.00;4.47;;;;;;;-4.45;100.00;98852.31;5012687;28;20050;-68
2021/12/31 02:34:59;;;;;;;7.75;4.05;;;;;;;-4.53;100.00;98848.28;5012765;28;20503;-69
2021/12/31 02:37:28;;;;;;;7.03;4.43;;;;;;;-4.45;100.00;98851.47;5025089;22;20550;-76
2021/12/31 02:39:55;;;;;;;7.32;4.18;;;;;;;-4.55;100.00;98852.56;5012793;28;20471;-77
2021/12/31 02:42:23;;;;;;;7.97;3.90;;;;;;;-4.29;100.00;98857.00;5012683;28;20129;-76
2021/12/31 02:44:51;;;;;;;8.23;4.43;;;;;;;-4.29;98.83;98849.38;5012453;28;20050;-77
2021/12/31 02:47:18;;;;;;;6.57;4.60;;;;;;;-4.51;99.73;98854.19;5012679;28;20065;-76
2021/12/31 02:49:47;;;;;;;6.82;4.10;;;;;;;-4.40;99.90;98850.47;5012354;28;20480;-76
2021/12/31 02:52:15;;;;;;;7.13;4.68;;;;;;;-4.39;98.56;98842.00;5012528;28;20085;-75
2021/12/31 02:54:46;;;;;;;8.23;4.57;;;;;;;-4.41;99.19;98840.38;5012386;28;20129;-74
2021/12/31 02:57:15;;;;;;;8.00;4.45;;;;;;;-4.48;99.88;98842.22;5011993;28;20050;-76
2021/12/31 02:59:43;;;;;;;8.05;4.78;;;;;;;-4.42;99.63;98831.09;5012479;28;20057;-74
2021/12/31 03:02:10;;;;;;;7.55;4.68;;;;;;;-4.33;99.63;98832.56;5012213;28;20046;-74
2021/12/31 03:04:38;;;;;;;;;;;;;;;-4.25;99.18;98839.13;5016579;28;20132;-73
2021/12/31 03:07:07;;;;;;;6.18;3.83;;;;;;;-4.13;98.43;98839.69;5016062;28;19971;-75
2021/12/31 03:09:36;;;;;;;6.80;4.07;;;;;;;-4.41;98.96;98840.38;5016199;28;20046;-75
2021/12/31 03:12:06;;;;;;;7.47;4.55;;;;;;;-4.56;100.00;98845.84;5016220;28;20052;-74
2021/12/31 03:14:34;;;;;;;8.38;4.68;;;;;;;-4.67;100.00;98828.34;5016398;28;20050;-74
2021/12/31 03:17:01;;;;;;;6.72;4.15;;;;;;;-4.54;100.00;98836.50;5016168;28;20049;-74
2021/12/31 03:19:29;;;;;;;7.28;4.53;;;;;;;-4.48;100.00;98834.63;5016141;28;20050;-75
2021/12/31 03:21:55;;;;;;;9.00;4.80;;;;;;;-4.26;98.82;98837.47;5016208;28;20050;-74
2021/12/31 03:24:22;;;;;;;6.65;3.95;;;;;;;-4.50;99.12;98831.28;5016178;28;20054;-74
2021/12/31 03:26:49;;;;;;;6.88;4.40;;;;;;;-4.29;99.05;98835.00;5015783;28;20048;-74
2021/12/31 03:29:18;;;;;;;7.78;4.35;;;;;;;-4.28;98.59;98838.38;5015912;28;20676;-74
2021/12/31 03:31:45;;;;;;;9.82;4.38;;;;;;;-4.34;98.38;98835.97;5015944;28;20053;-74
2021/12/31 03:34:13;;;;;;;5.80;4.22;;;;;;;-4.43;98.71;98831.97;5015717;28;20053;-74
2021/12/31 03:36:40;;;;;;;6.75;4.35;;;;;;;-4.61;99.97;98830.72;5027690;22;20054;-70
2021/12/31 03:39:07;;;;;;;12.15;4.82;;;;;;;-4.59;100.00;98828.97;5015960;28;20046;-70
2021/12/31 03:41:34;;;;;;;7.40;4.50;;;;;;;-4.73;100.00;98829.28;5015556;28;20389;-70
2021/12/31 03:44:01;;;;;;;;;;;;;;;-4.77;100.00;98824.34;5016110;28;20129;-68
2021/12/31 03:46:30;;;;;;;7.43;4.07;;;;;;;-4.85;100.00;98822.81;5015623;28;19921;-70
2021/12/31 03:48:57;;;;;;;7.40;4.53;;;;;;;-4.84;100.00;98819.41;5015840;28;20050;-69
2021/12/31 03:51:24;;;;;;;10.13;4.88;;;;;;;-4.85;100.00;98820.28;5015640;28;20472;-68
2021/12/31 03:53:50;;;;;;;7.53;4.15;;;;;;;-4.67;100.00;98816.47;5015434;28;20448;-69
2021/12/31 03:56:20;;;;;;;6.13;3.80;;;;;;;-4.27;100.00;98815.47;5015330;28;20392;-69
2021/12/31 03:58:47;;;;;;;7.40;4.32;;;;;;;-4.32;98.87;98822.38;5015489;28;20056;-69
2021/12/31 04:01:14;;;;;;;6.80;4.03;;;;;;;-4.63;100.00;98819.75;5015305;28;20050;-69
2021/12/31 04:03:42;;;;;;;7.93;4.22;;;;;;;-4.74;100.00;98814.94;5015265;28;20064;-69
2021/12/31 04:06:09;;;;;;;6.68;4.32;;;;;;;-4.78;100.00;98823.47;5014967;28;20400;-69
2021/12/31 04:08:36;;;;;;;7.95;4.70;;;;;;;-4.76;100.00;98828.53;5015241;28;20049;-68
2021/12/31 04:11:04;;;;;;;6.40;3.67;;;;;;;-4.76;100.00;98821.75;5015389;28;20046;-69
2021/12/31 04:13:31;;;;;;;6.95;4.15;;;;;;;-4.73;100.00;98818.31;5015118;28;20060;-69
2021/12/31 04:15:58;;;;;;;7.45;4.28;;;;;;;-4.81;100.00;98815.94;5014385;28;20065;-68
2021/12/31 04:18:26;;;;;;;8.15;4.68;;;;;;;-4.51;100.00;98819.47;5015050;28;20508;-69
2021/12/31 04:20:56;;;;;;;7.35;4.20;;;;;;;-4.27;99.08;98825.63;5015088;28;20046;-67
2021/12/31 04:23:28;;;;;;;7.32;4.30;;;;;;;-4.31;98.59;98821.50;5014982;28;20127;-69
2021/12/31 04:25:56;;;;;;;6.38;4.40;;;;;;;-4.57;99.36;98823.84;5014912;28;20042;-69
2021/12/31 04:28:24;;;;;;;8.10;4.50;;;;;;;-4.65;100.00;98826.56;5014837;28;20508;-69
2021/12/31 04:30:51;;;;;;;6.47;4.25;;;;;;;-4.70;100.00;98825.84;5014640;28;20424;-69
2021/12/31 04:33:18;;;;;;;8.40;4.60;;;;;;;-4.76;100.00;98826.81;5014468;28;20054;-68
2021/12/31 04:35:46;;;;;;;8.60;4.75;;;;;;;-4.63;100.00;98815.50;5015109;28;20056;-69
2021/12/31 04:38:14;;;;;;;;;;;;;;;-4.55;100.00;98832.25;5015090;28;20049;-69
2021/12/31 04:40:41;;;;;;;7.70;4.38;;;;;;;-4.68;100.00;98826.66;5014565;28;19925;-69
2021/12/31 04:43:08;;;;;;;6.85;4.18;;;;;;;-4.72;100.00;98827.59;5014615;28;20050;-69
2021/12/31 04:45:35;;;;;;;6.88;4.45;;;;;;;-4.76;100.00;98821.75;5014276;28;20042;-69
2021/12/31 04:48:02;;;;;;;8.10;4.78;;;;;;;-4.62;100.00;98824.81;5014431;28;20054;-68
2021/12/31 04:50:29;;;;;;;6.70;4.43;;;;;;;-4.55;100.00;98819.56;5014572;28;20057;-69
2021/12/31 04:52:56;;;;;;;6.82;4.20;;;;;;;-4.42;100.00;98828.53;5014425;28;20053;-69
2021/12/31 04:55:25;;;;;;;6.75;4.45;;;;;;;-4.42;99.84;98826.88;5014327;28;20413;-68
2021/12/31 04:57:51;;;;;;;8.63;4.53;;;;;;;-4.35;99.37;98829.25;5014218;28;20054;-68
2021/12/31 05:00:19;;;;;;;7.93;4.78;;;;;;;-4.60;99.68;98837.44;5014452;28;20057;-69
2021/12/31 05:02:46;;;;;;;7.70;4.78;;;;;;;-4.74;100.00;98839.50;5014536;28;20050;-69
2021/12/31 05:05:13;;;;;;;8.75;4.97;;;;;;;-4.60;100.00;98845.06;5014136;28;20484;-68
2021/12/31 05:07:39;;;;;;;7.43;4.75;;;;;;;-4.68;100.00;98845.25;5014027;28;20381;-68
2021/12/31 05:10:07;;;;;;;9.75;4.88;;;;;;;-4.68;100.00;98845.25;5014107;28;20046;-69
2021/12/31 05:12:37;;;;;;;9.13;5.15;;;;;;;-4.74;100.00;98849.66;5013875;28;20053;-68
2021/12/31 05:15:07;;;;;;;8.57;5.18;;;;;;;-4.84;100.00;98849.00;5013870;28;20057;-68
2021/12/31 05:17:34;;;;;;;7.50;4.82;;;;;;;-4.60;100.00;98851.00;5013894;28;20050;-68
2021/12/31 05:20:02;;;;;;;8.13;5.53;;;;;;;-4.61;100.00;98840.88;5014000;28;20049;-68
2021/12/31 05:22:28;;;;;;;;;;;;;;;-4.48;100.00;98838.88;5014452;28;20052;-68
2021/12/31 05:24:55;;;;;;;9.30;4.78;;;;;;;-4.48;100.00;98829.53;5013678;28;19929;-69
2021/12/31 05:27:22;;;;;;;9.20;4.95;;;;;;;-4.28;99.43;98823.13;5012497;28;20416;-68
2021/12/31 05:29:50;;;;;;;9.02;4.85;;;;;;;-4.35;99.71;98835.16;5013695;28;20527;-69
2021/12/31 05:32:17;;;;;;;9.07;5.20;;;;;;;-4.50;99.59;98832.97;5013519;28;20057;-69
2021/12/31 05:34:44;;;;;;;9.57;4.90;;;;;;;-4.62;100.00;98824.81;5013661;28;20057;-68
2021/12/31 05:37:11;;;;;;;9.38;4.78;;;;;;;-4.50;100.00;98823.66;5027895;22;20053;-73
2021/12/31 05:39:38;;;;;;;7.53;4.95;;;;;;;-4.34;99.28;98808.03;5013851;28;20404;-73
2021/12/31 05:42:05;;;;;;;;;;;;;;;-4.30;98.99;98807.09;5014028;28;20046;-75
2021/12/31 05:44:32;;;;;;;6.75;4.05;;;;;;;-4.24;99.34;98804.38;5013706;28;19992;-74
2021/12/31 05:47:00;;;;;;;9.85;5.07;;;;;;;-4.34;98.99;98800.44;5179596;22;20053;-75
2021/12/31 05:49:27;;;;;;;9.48;4.93;;;;;;;-4.39;99.40;98810.72;5013177;28;20476;-75
2021/12/31 05:51:54;;;;;;;9.35;5.50;;;;;;;-4.56;99.61;98820.44;5013573;28;20485;-75
2021/12/31 05:54:21;;;;;;;10.02;5.25;;;;;;;-4.48;100.00;98813.47;5013293;28;20046;-74
2021/12/31 05:56:48;;;;;;;9.32;5.05;;;;;;;-4.28;98.86;98818.06;5013200;28;20046;-74
2021/12/31 05:59:15;;;;;;;8.98;4.47;;;;;;;-4.40;99.32;98824.28;5013284;28;20588;-74
2021/12/31 06:01:42;;;;;;;7.47;4.50;;;;;;;-4.43;98.83;98822.63;5013126;28;20495;-74
2021/12/31 06:04:10;;;;;;;9.07;4.53;;;;;;;-4.50;99.56;98827.91;5013222;28;20045;-75
2021/12/31 06:06:37;;;;;;;8.10;5.00;;;;;;;-4.63;99.93;98829.91;5012826;28;20049;-74
2021/12/31 06:09:07;;;;;;;7.70;4.38;;;;;;;-4.56;100.00;98833.16;5013291;28;20065;-75
2021/12/31 06:11:35;;;;;;;9.73;4.95;;;;;;;-4.66;100.00;98830.00;5013019;28;20402;-74
2021/12/31 06:14:04;;;;;;;;;;;;;;;-4.70;100.00;98833.47;5013632;28;20046;-74
2021/12/31 06:16:35;;;;;;;8.68;5.30;;;;;;;-4.83;100.00;98840.53;5012835;28;19964;-75
2021/12/31 06:19:04;;;;;;;8.70;5.40;;;;;;;-4.92;100.00;98838.22;5012900;28;20103;-74
2021/12/31 06:21:33;;;;;;;8.48;5.00;;;;;;;-4.88;100.00;98838.13;5012906;28;20046;-74
2021/12/31 06:24:01;;;;;;;9.50;5.30;;;;;;;-4.89;100.00;98836.44;5013055;28;20050;-73
2021/12/31 06:26:28;;;;;;;9.23;4.97;;;;;;;-4.82;100.00;98832.88;5012515;28;20057;-74
2021/12/31 06:28:54;;;;;;;7.50;4.90;;;;;;;-4.57;100.00;98834.84;5012568;28;20048;-74
2021/12/31 06:31:22;;;;;;;7.50;4.53;;;;;;;-4.59;100.00;98831.50;5012844;28;20064;-74
2021/12/31 06:33:49;;;;;;;8.88;5.28;;;;;;;-4.71;100.00;98832.63;5012607;28;20057;-74
2021/12/31 06:36:15;;;;;;;8.15;4.97;;;;;;;-4.77;100.00;98840.41;5025389;22;20508;-70
2021/12/31 06:38:44;;;;;;;7.10;4.63;;;;;;;-4.65;100.00;98841.78;5012368;28;20512;-70
2021/12/31 06:41:11;;;;;;;8.88;4.85;;;;;;;-4.73;100.00;98857.19;5012483;28;20081;-70
2021/12/31 06:43:38;;;;;;;10.48;5.38;;;;;;;-4.43;99.74;98860.72;5012453;28;20046;-70
2021/12/31 06:46:04;;;;;;;10.48;5.68;;;;;;;-4.76;100.00;98859.00;5012639;28;20068;-70
2021/12/31 06:48:31;;;;;;;8.90;5.57;;;;;;;-4.78;100.00;98861.53;5012428;28;20381;-68
2021/12/31 06:50:58;;;;;;;8.38;5.57;;;;;;;-4.75;100.00;98869.13;5012533;28;20608;-70
2021/12/31 06:53:25;;;;;;;7.18;4.55;;;;;;;-4.77;100.00;98870.03;5012729;28;20393;-70
2021/12/31 06:55:53;;;;;;;10.00;5.28;;;;;;;-4.71;100.00;98867.31;5012499;28;20073;-70
2021/12/31 06:58:20;;;;;;;11.30;5.28;;;;;;;-4.90;100.00;98875.34;5012333;28;20254;-70
2021/12/31 07:00:47;;;;;;;7.82;5.10;;;;;;;-4.63;100.00;98878.97;5012452;28;20042;-70
2021/12/31 07:03:15;;;;;;;8.18;4.30;;;;;;;-4.55;99.74;98886.38;5012502;28;20042;-69
2021/12/31 07:05:42;;;;;;;8.60;4.72;;;;;;;-4.66;99.29;98881.56;5012327;28;20046;-69
2021/12/31 07:08:10;;;;;;;7.55;4.78;;;;;;;-4.74;99.91;98875.03;5012572;28;20046;-70
2021/12/31 07:10:37;;;;;;;10.57;5.38;;;;;;;-4.69;99.41;98878.28;5012396;28;20049;-70
2021/12/31 07:13:10;;;;;;;8.10;4.88;;;;;;;-4.79;100.00;98882.72;5012213;28;20404;-70
2021/12/31 07:15:39;;;;;;;8.13;5.13;;;;;;;-4.85;100.00;98883.69;5012183;28;20058;-69
2021/12/31 07:18:06;;;;;;;10.40;5.75;;;;;;;-4.94;100.00;98888.13;5012275;28;20081;-69
2021/12/31 07:20:33;;;;;;;8.73;4.70;;;;;;;-4.73;99.89;98891.91;5012211;28;20050;-69
2021/12/31 07:23:04;;;;;;;7.72;4.93;;;;;;;-4.84;100.00;98895.50;5012323;28;20052;-70
2021/12/31 07:25:32;;;;;;;9.60;4.97;;;;;;;-4.82;99.30;98903.94;5012166;28;20050;-70
2021/12/31 07:27:59;;;;;;;8.30;5.10;;;;;;;-4.77;99.06;98895.38;5011944;28;20092;-69
2021/12/31 07:30:27;;;;;;;8.32;4.95;;;;;;;-4.94;99.64;98903.34;5012149;28;20050;-69
2021/12/31 07:32:54;;;;;;;7.22;4.57;;;;;;;-5.06;100.00;98912.06;5011997;28;20053;-69
2021/12/31 07:35:21;;;;;;;6.78;4.13;;;;;;;-5.04;100.00;98910.31;5012125;28;20056;-69
2021/12/31 07:37:48;;;;;;;7.72;4.72;;;;;;;-5.07;100.00;98915.47;5026384;22;20053;-75
2021/12/31 07:40:24;;;;;;;6.53;4.30;;;;;;;-5.03;99.85;98912.84;5012068;28;20510;-74
2021/12/31 07:42:51;;;;;;;9.90;4.40;;;;;;;-5.23;100.00;98916.66;5012390;28;20046;-75
2021/12/31 07:45:18;;;;;;;7.35;4.32;;;;;;;-5.11;99.66;98911.31;5012262;28;20065;-75
2021/12/31 07:47:46;;;;;;;7.80;4.28;;;;;;;-5.37;100.00;98921.97;5012083;28;20046;-75
2021/12/31 07:50:13;;;;;;;8.20;4.47;;;;;;;-5.35;99.92;98920.25;5013385;28;20061;-75
2021/12/31 07:52:40;;;;;;;7.55;3.78;;;;;;;-5.46;100.00;98917.94;5015684;28;20500;-74
2021/12/31 07:55:07;;;;;;;6.47;4.25;;;;;;;-5.45;99.72;98916.25;5015336;28;20412;-75
2021/12/31 07:57:34;;;;;;;;;;;;;;;-5.68;99.75;98925.09;5015845;28;20412;-74
2021/12/31 08:00:01;;;;;;;6.25;4.05;;;;;;;-5.64;99.58;98928.44;5015461;28;19921;-75
2021/12/31 08:02:28;;;;;;;8.95;4.47;;;;;;;-5.76;100.00;98927.78;5015215;28;20056;-75
2021/12/31 08:04:56;;;;;;;7.47;4.78;;;;;;;-5.85;100.00;98939.78;5015412;28;20065;-75
2021/12/31 08:07:23;;;;;;;7.07;4.03;;;;;;;-5.91;100.00;98935.63;5015320;28;20401;-75
2021/12/31 08:09:50;;;;;;;7.75;4.82;;;;;;;-5.98;100.00;98932.44;5015227;28;20412;-75
2021/12/31 08:12:16;;;;;;;7.65;4.68;;;;;;;-5.92;100.00;98941.59;5015176;28;20499;-75
2021/12/31 08:14:43;;;;;;;7.93;3.83;;;;;;;-5.88;100.00;98942.34;5015344;28;20042;-75
2021/12/31 08:17:10;;;;;;;7.03;4.03;;;;;;;-5.96;100.00;98935.78;5015330;28;20500;-75
2021/12/31 08:19:37;;;;;;;7.32;4.05;;;;;;;-6.08;100.00;98948.63;5015059;28;20049;-75
2021/12/31 08:22:05;;;;;;;6.32;3.50;;;;;;;-6.12;100.00;98952.06;5014865;28;20484;-76
2021/12/31 08:24:32;;;;;;;6.38;3.90;;;;;;;-5.94;99.79;98944.16;5015000;28;20484;-76
2021/12/31 08:26:59;;;;;;;6.03;3.65;;;;;;;-6.07;100.00;98947.75;5014705;28;20053;-76
2021/12/31 08:29:26;;;;;;;5.70;3.83;;;;;;;-6.24;100.00;98953.13;5014768;28;20050;-76
2021/12/31 08:31:53;;;;;;;6.90;3.55;;;;;;;-6.13;100.00;98961.38;5015145;28;20061;-74
2021/12/31 08:34:20;;;;;;;6.45;3.67;;;;;;;-6.26;100.00;98975.09;5014790;28;20050;-74
2021/12/31 08:36:47;;;;;;;7.65;3.85;;;;;;;-6.25;100.00;98976.75;5014901;28;20060;-74
2021/12/31 08:39:15;;;;;;;6.07;3.60;;;;;;;-6.30;100.00;98981.03;5014765;28;20400;-75
2021/12/31 08:41:42;;;;;;;6.60;4.13;;;;;;;-6.24;100.00;98980.09;5014878;28;20489;-75
2021/12/31 08:44:09;;;;;;;6.15;3.47;;;;;;;-6.13;100.00;98976.56;5014733;28;20045;-74
2021/12/31 08:46:36;;;;;;;5.75;3.40;;;;;;;-6.16;100.00;98979.13;5014491;28;20065;-75
2021/12/31 08:49:04;;;;;;;4.43;3.47;;;;;;;-6.20;100.00;98984.28;5014413;28;20053;-74
2021/12/31 08:51:30;;;;;;;7.60;4.03;;;;;;;-6.29;100.00;98985.25;5014315;28;20404;-74
2021/12/31 08:53:57;;;;;;;5.90;3.90;;;;;;;-6.30;99.79;98998.75;5014490;28;20046;-75
2021/12/31 08:56:26;;;;;;;6.55;3.97;;;;;;;-6.32;100.00;98997.09;5014442;28;20125;-75
2021/12/31 08:58:53;;;;;;;5.75;4.18;;;;;;;-6.29;100.00;99002.97;5014407;28;20481;-75
2021/12/31 09:01:20;;;;;;;7.28;3.80;;;;;;;-6.25;100.00;99006.28;5014118;28;20049;-74
2021/12/31 09:03:47;;;;;;;6.13;3.63;;;;;;;-6.30;100.00;99002.97;5014417;28;20046;-74
2021/12/31 09:06:17;;;;;;;7.15;3.88;;;;;;;-6.31;99.72;99002.16;5014212;28;20054;-75
2021/12/31 09:08:45;;;;;;;5.57;3.70;;;;;;;-6.18;99.12;99006.16;5014312;28;20120;-75
2021/12/31 09:11:12;;;;;;;6.47;3.42;;;;;;;-6.14;98.85;99005.28;5014165;28;20400;-75
2021/12/31 09:13:42;;;;;;;6.10;3.60;;;;;;;-6.10;99.49;99013.66;5014118;28;20045;-75
2021/12/31 09:16:09;;;;;;;6.40;3.92;;;;;;;-6.10;98.99;99013.66;5013727;28;20404;-75
2021/12/31 09:18:36;;;;;;;6.68;3.53;;;;;;;-5.97;98.98;99014.28;5014074;28;20058;-75
2021/12/31 09:21:03;;;;;;;5.32;3.10;;;;;;;-5.84;97.56;99023.34;5013759;28;20400;-75
2021/12/31 09:23:30;;;;;;;6.00;3.72;;;;;;;-5.94;98.19;99030.28;5014017;28;20408;-75
2021/12/31 09:25:58;;;;;;;4.88;3.22;;;;;;;-5.83;97.93;99027.56;5013865;28;20049;-75
2021/12/31 09:28:27;;;;;;;5.72;3.70;;;;;;;-5.96;98.73;99037.06;5013747;28;20056;-75
2021/12/31 09:30:55;;;;;;;5.68;3.70;;;;;;;-5.82;98.01;99041.06;5013754;28;20056;-75
2021/12/31 09:33:22;;;;;;;5.38;3.67;;;;;;;-5.72;97.55;99029.91;5013814;28;20046;-75
2021/12/31 09:38:16;;;;;;;5.43;3.42;;;;;;;-5.88;97.79;99041.13;5030666;28;20064;-70
2021/12/31 09:40:43;;;;;;;3.20;2.67;;;;;;;-5.77;98.12;99046.88;5033128;28;20052;-70
2021/12/31 09:43:12;;;;;;;4.30;3.00;;;;;;;-5.91;98.39;99045.41;5033159;28;20058;-70
2021/12/31 09:45:42;;;;;;;4.70;3.20;;;;;;;-5.94;98.60;99054.75;5033002;28;20103;-69
2021/12/31 09:48:12;;;;;;;5.10;3.17;;;;;;;-5.80;97.82;99055.38;5013419;28;20046;-70
2021/12/31 09:50:41;;;;;;;4.68;3.42;;;;;;;-5.74;97.67;99056.97;5013352;28;20064;-69
2021/12/31 09:53:09;;;;;;;5.85;3.47;;;;;;;-5.76;97.52;99061.22;5013486;28;20072;-70
2021/12/31 09:55:41;;;;;;;4.88;2.90;;;;;;;-5.88;97.77;99056.34;5013065;28;20046;-70
2021/12/31 09:58:10;;;;;;;4.80;3.25;;;;;;;-5.73;97.70;99056.94;5013225;28;20386;-70
2021/12/31 10:00:38;;;;;;;4.00;2.65;;;;;;;-5.72;97.93;99061.16;5012165;28;20053;-69
2021/12/31 10:03:14;;;;;;;4.07;3.03;;;;;;;-5.86;97.80;99062.22;5013211;28;20042;-70
2021/12/31 10:05:42;;;;;;;5.40;3.83;;;;;;;-5.94;98.86;99070.78;5012932;28;20077;-71
2021/12/31 10:08:17;;;;;;;5.82;3.17;;;;;;;-5.60;96.63;99080.41;5012865;28;20042;-71
2021/12/31 10:10:44;;;;;;;5.25;3.28;;;;;;;-5.78;97.11;99080.66;5012764;28;20046;-69
2021/12/31 10:13:11;;;;;;;4.28;3.05;;;;;;;-5.79;96.37;99076.47;5012502;28;20074;-69
2021/12/31 10:15:41;;;;;;;4.53;3.10;;;;;;;-6.00;98.37;99075.13;5012867;28;20054;-69
2021/12/31 10:18:13;;;;;;;5.07;2.85;;;;;;;-5.84;96.94;99079.06;5012573;28;20050;-70
2021/12/31 10:20:50;;;;;;;4.70;2.97;;;;;;;-5.90;97.47;99081.69;5012515;28;20041;-68
2021/12/31 10:23:19;;;;;;;3.97;2.60;;;;;;;-5.97;97.38;99080.97;5012865;28;20116;-69
2021/12/31 10:25:46;;;;;;;5.78;3.40;;;;;;;-6.08;98.18;99089.59;5012683;28;20096;-69
2021/12/31 10:28:16;;;;;;;3.65;2.83;;;;;;;-6.23;98.71;99093.19;5012682;28;20042;-69
2021/12/31 10:30:44;;;;;;;4.45;2.90;;;;;;;-6.27;99.22;99107.53;5012587;28;20054;-71
2021/12/31 10:33:13;;;;;;;4.75;2.90;;;;;;;-6.14;98.33;99104.03;5012623;28;20050;-69
2021/12/31 10:35:47;;;;;;;5.93;3.60;;;;;;;-6.29;98.46;99114.34;5012343;28;20401;-69
2021/12/31 10:38:14;;;;;;;4.35;2.97;;;;;;;-6.07;98.18;99119.94;5012286;28;20104;-70
2021/12/31 10:40:43;;;;;;;7.00;3.47;;;;;;;-6.27;98.16;99120.19;5012510;28;20436;-70
2021/12/31 10:43:16;;;;;;;4.50;3.13;;;;;;;-6.25;98.15;99130.31;5012429;28;20374;-70
2021/12/31 10:46:02;;;;;;;3.78;3.05;;;;;;;-6.36;98.83;99127.94;5012321;28;20452;-69
2021/12/31 10:48:41;;;;;;;4.90;2.95;;;;;;;-6.24;98.18;99130.31;5012760;28;20042;-69
2021/12/31 10:51:08;;;;;;;4.32;3.08;;;;;;;-6.34;98.82;99133.81;5012326;28;20057;-70
2021/12/31 10:53:37;;;;;;;5.07;3.15;;;;;;;-6.39;99.21;99130.50;5012323;28;20058;-69
2021/12/31 10:56:09;;;;;;;6.32;3.10;;;;;;;-6.08;98.52;99151.19;5012225;28;20057;-69
2021/12/31 10:58:36;;;;;;;5.60;3.47;;;;;;;-6.20;99.10;99146.28;5012226;28;20064;-70
2021/12/31 11:01:05;;;;;;;4.70;3.55;;;;;;;-6.21;99.58;99150.53;5012353;28;20053;-68
2021/12/31 11:03:34;;;;;;;5.20;3.45;;;;;;;-6.02;98.90;99152.81;5012354;28;20053;-65
2021/12/31 11:06:04;;;;;;;5.47;3.80;;;;;;;-5.99;97.66;99156.13;5012306;28;20050;-69
2021/12/31 11:08:33;;;;;;;7.00;3.85;;;;;;;-6.16;99.23;99163.13;5012245;28;20050;-68
2021/12/31 11:11:01;;;;;;;6.07;3.65;;;;;;;-6.14;99.22;99161.38;5012170;28;20057;-67
2021/12/31 11:13:30;;;;;;;6.05;3.90;;;;;;;-5.99;98.98;99168.78;5012399;28;20105;-70
2021/12/31 11:16:00;;;;;;;5.47;3.53;;;;;;;-5.99;98.83;99168.78;5012108;28;20053;-69
2021/12/31 11:18:28;;;;;;;4.80;3.47;;;;;;;-5.93;98.49;99157.72;5012095;28;20492;-69
2021/12/31 11:20:58;;;;;;;6.00;3.75;;;;;;;-5.91;98.39;99156.00;5012370;28;20401;-69
2021/12/31 11:23:28;;;;;;;5.00;3.28;;;;;;;-5.89;98.64;99166.94;5012285;28;20042;-66
2021/12/31 11:25:57;;;;;;;7.13;3.53;;;;;;;-5.88;97.92;99163.56;5016308;28;20042;-69
2021/12/31 11:28:26;;;;;;;6.07;3.63;;;;;;;-5.89;98.41;99171.19;5015791;28;20052;-66
2021/12/31 11:30:53;;;;;;;5.68;3.78;;;;;;;-6.06;98.76;99172.28;5016088;28;20054;-67
2021/12/31 11:33:26;;;;;;;5.70;3.30;;;;;;;-5.89;98.75;99174.53;5015911;28;20161;-66
2021/12/31 11:36:02;;;;;;;5.47;3.60;;;;;;;-6.03;99.30;99174.78;5016086;28;20057;-68
2021/12/31 11:38:48;;;;;;;4.53;3.00;;;;;;;-5.91;98.72;99172.06;5015496;28;20046;-68